sensor_id;sensor_type;location;lat;lon;timestamp;P1;durP1;ratioP1;P2;durP2;ratioP2
6757;SDS011;3416;53.074;8.822;2023-01-24T00:00:02;15.55;;;10.98;;
6757;SDS011;3416;53.074;8.822;2023-01-24T00:02:29;19.77;;;14.50;;
6757;SDS011;3416;53.074;8.822;2023-01-24T00:04:56;17.98;;;13.65;;
6757;SDS011;3416;53.074;8.822;2023-01-24T00:07:24;25.55;;;18.15;;
6757;SDS011;3416;53.074;8.822;2023-01-24T00:09:51;20.45;;;15.43;;
6757;SDS011;3416;53.074;8.822;2023-01-24T00:15:01;17.42;;;12.60;;
6757;SDS011;3416;53.074;8.822;2023-01-24T00:17:30;19.88;;;14.55;;
6757;SDS011;3416;53.074;8.822;2023-01-24T00:19:57;20.55;;;13.95;;
6757;SDS011;3416;53.074;8.822;2023-01-24T00:22:30;20.60;;;14.75;;
6757;SDS011;3416;53.074;8.822;2023-01-24T00:24:57;22.02;;;13.85;;
6757;SDS011;3416;53.074;8.822;2023-01-24T00:27:24;18.83;;;14.57;;
6757;SDS011;3416;53.074;8.822;2023-01-24T00:29:51;19.85;;;13.40;;
6757;SDS011;3416;53.074;8.822;2023-01-24T00:32:19;19.20;;;12.70;;
6757;SDS011;3416;53.074;8.822;2023-01-24T00:34:46;16.48;;;13.05;;
6757;SDS011;3416;53.074;8.822;2023-01-24T00:37:13;23.00;;;13.80;;
6757;SDS011;3416;53.074;8.822;2023-01-24T00:39:40;15.40;;;12.50;;
6757;SDS011;3416;53.074;8.822;2023-01-24T00:42:07;19.05;;;12.57;;
6757;SDS011;3416;53.074;8.822;2023-01-24T00:44:34;17.88;;;11.27;;
6757;SDS011;3416;53.074;8.822;2023-01-24T00:47:01;23.38;;;13.10;;
6757;SDS011;3416;53.074;8.822;2023-01-24T00:49:29;16.17;;;11.80;;
6757;SDS011;3416;53.074;8.822;2023-01-24T00:54:35;15.32;;;10.77;;
6757;SDS011;3416;53.074;8.822;2023-01-24T00:57:17;17.83;;;12.18;;
6757;SDS011;3416;53.074;8.822;2023-01-24T00:59:46;16.02;;;10.82;;
6757;SDS011;3416;53.074;8.822;2023-01-24T01:02:13;13.70;;;11.07;;
6757;SDS011;3416;53.074;8.822;2023-01-24T01:04:41;14.93;;;10.77;;
6757;SDS011;3416;53.074;8.822;2023-01-24T01:07:08;15.27;;;10.20;;
6757;SDS011;3416;53.074;8.822;2023-01-24T01:09:35;11.02;;;9.65;;
6757;SDS011;3416;53.074;8.822;2023-01-24T01:12:02;15.48;;;10.95;;
6757;SDS011;3416;53.074;8.822;2023-01-24T01:14:30;16.52;;;10.55;;
6757;SDS011;3416;53.074;8.822;2023-01-24T01:16:57;10.07;;;7.45;;
6757;SDS011;3416;53.074;8.822;2023-01-24T01:19:24;12.25;;;8.50;;
6757;SDS011;3416;53.074;8.822;2023-01-24T01:21:52;11.57;;;8.30;;
6757;SDS011;3416;53.074;8.822;2023-01-24T01:24:19;10.55;;;7.72;;
6757;SDS011;3416;53.074;8.822;2023-01-24T01:26:46;12.43;;;8.48;;
6757;SDS011;3416;53.074;8.822;2023-01-24T01:29:13;10.52;;;6.82;;
6757;SDS011;3416;53.074;8.822;2023-01-24T01:31:40;12.80;;;8.35;;
6757;SDS011;3416;53.074;8.822;2023-01-24T01:34:07;12.30;;;8.50;;
6757;SDS011;3416;53.074;8.822;2023-01-24T01:36:35;12.35;;;9.23;;
6757;SDS011;3416;53.074;8.822;2023-01-24T01:39:04;13.73;;;11.00;;
6757;SDS011;3416;53.074;8.822;2023-01-24T01:41:31;15.77;;;10.60;;
6757;SDS011;3416;53.074;8.822;2023-01-24T01:47:01;13.85;;;9.25;;
6757;SDS011;3416;53.074;8.822;2023-01-24T01:49:29;13.07;;;8.80;;
6757;SDS011;3416;53.074;8.822;2023-01-24T01:51:57;14.25;;;9.95;;
6757;SDS011;3416;53.074;8.822;2023-01-24T01:54:29;15.00;;;9.65;;
6757;SDS011;3416;53.074;8.822;2023-01-24T01:57:03;14.85;;;10.10;;
6757;SDS011;3416;53.074;8.822;2023-01-24T01:59:34;14.40;;;10.95;;
6757;SDS011;3416;53.074;8.822;2023-01-24T02:02:05;14.43;;;10.80;;
6757;SDS011;3416;53.074;8.822;2023-01-24T02:04:35;13.50;;;9.93;;
6757;SDS011;3416;53.074;8.822;2023-01-24T02:07:05;16.45;;;11.50;;
6757;SDS011;3416;53.074;8.822;2023-01-24T02:09:47;10.50;;;8.10;;
6757;SDS011;3416;53.074;8.822;2023-01-24T02:12:18;16.27;;;10.50;;
6757;SDS011;3416;53.074;8.822;2023-01-24T02:14:54;11.57;;;9.65;;
6757;SDS011;3416;53.074;8.822;2023-01-24T02:17:41;11.10;;;8.88;;
6757;SDS011;3416;53.074;8.822;2023-01-24T02:20:12;11.52;;;9.60;;
6757;SDS011;3416;53.074;8.822;2023-01-24T02:22:53;11.35;;;8.68;;
6757;SDS011;3416;53.074;8.822;2023-01-24T02:25:35;13.38;;;9.48;;
6757;SDS011;3416;53.074;8.822;2023-01-24T02:31:15;11.13;;;8.75;;
6757;SDS011;3416;53.074;8.822;2023-01-24T02:33:42;14.82;;;9.55;;
6757;SDS011;3416;53.074;8.822;2023-01-24T02:36:11;16.10;;;11.70;;
6757;SDS011;3416;53.074;8.822;2023-01-24T02:38:44;11.13;;;8.77;;
6757;SDS011;3416;53.074;8.822;2023-01-24T02:41:14;14.23;;;9.32;;
6757;SDS011;3416;53.074;8.822;2023-01-24T02:43:46;12.02;;;9.65;;
6757;SDS011;3416;53.074;8.822;2023-01-24T02:46:17;12.77;;;9.80;;
6757;SDS011;3416;53.074;8.822;2023-01-24T02:48:44;14.77;;;10.55;;
6757;SDS011;3416;53.074;8.822;2023-01-24T02:51:11;14.18;;;9.88;;
6757;SDS011;3416;53.074;8.822;2023-01-24T02:53:56;14.30;;;10.20;;
6757;SDS011;3416;53.074;8.822;2023-01-24T02:56:23;10.30;;;7.75;;
6757;SDS011;3416;53.074;8.822;2023-01-24T02:59:07;12.70;;;10.32;;
6757;SDS011;3416;53.074;8.822;2023-01-24T03:01:38;12.65;;;10.32;;
6757;SDS011;3416;53.074;8.822;2023-01-24T03:06:54;14.32;;;9.65;;
6757;SDS011;3416;53.074;8.822;2023-01-24T03:09:22;15.70;;;11.25;;
6757;SDS011;3416;53.074;8.822;2023-01-24T03:12:04;11.43;;;8.73;;
6757;SDS011;3416;53.074;8.822;2023-01-24T03:14:50;11.35;;;8.27;;
6757;SDS011;3416;53.074;8.822;2023-01-24T03:17:36;16.40;;;10.05;;
6757;SDS011;3416;53.074;8.822;2023-01-24T03:20:20;13.00;;;8.73;;
6757;SDS011;3416;53.074;8.822;2023-01-24T03:23:05;12.82;;;8.40;;
6757;SDS011;3416;53.074;8.822;2023-01-24T03:25:52;12.20;;;9.10;;
6757;SDS011;3416;53.074;8.822;2023-01-24T03:28:37;13.30;;;10.00;;
6757;SDS011;3416;53.074;8.822;2023-01-24T03:31:23;15.45;;;9.70;;
6757;SDS011;3416;53.074;8.822;2023-01-24T03:34:13;10.05;;;7.80;;
6757;SDS011;3416;53.074;8.822;2023-01-24T03:36:58;10.73;;;8.48;;
6757;SDS011;3416;53.074;8.822;2023-01-24T03:39:26;12.90;;;9.13;;
6757;SDS011;3416;53.074;8.822;2023-01-24T03:42:10;12.57;;;9.10;;
6757;SDS011;3416;53.074;8.822;2023-01-24T03:44:37;13.10;;;9.10;;
6757;SDS011;3416;53.074;8.822;2023-01-24T03:47:04;15.98;;;9.93;;
6757;SDS011;3416;53.074;8.822;2023-01-24T03:49:32;11.48;;;8.13;;
6757;SDS011;3416;53.074;8.822;2023-01-24T03:52:16;11.15;;;8.65;;
6757;SDS011;3416;53.074;8.822;2023-01-24T03:54:53;13.05;;;9.98;;
6757;SDS011;3416;53.074;8.822;2023-01-24T03:57:21;13.45;;;9.95;;
6757;SDS011;3416;53.074;8.822;2023-01-24T03:59:49;11.70;;;9.10;;
6757;SDS011;3416;53.074;8.822;2023-01-24T04:02:17;12.30;;;8.55;;
6757;SDS011;3416;53.074;8.822;2023-01-24T04:04:46;14.55;;;10.75;;
6757;SDS011;3416;53.074;8.822;2023-01-24T04:07:30;15.00;;;10.32;;
6757;SDS011;3416;53.074;8.822;2023-01-24T04:09:59;12.32;;;10.07;;
6757;SDS011;3416;53.074;8.822;2023-01-24T04:12:27;12.77;;;8.85;;
6757;SDS011;3416;53.074;8.822;2023-01-24T04:14:54;14.93;;;10.52;;
6757;SDS011;3416;53.074;8.822;2023-01-24T04:17:24;15.30;;;9.38;;
6757;SDS011;3416;53.074;8.822;2023-01-24T04:19:52;14.20;;;9.65;;
6757;SDS011;3416;53.074;8.822;2023-01-24T04:22:19;12.93;;;9.98;;
6757;SDS011;3416;53.074;8.822;2023-01-24T04:24:46;14.85;;;10.98;;
6757;SDS011;3416;53.074;8.822;2023-01-24T04:27:13;13.73;;;10.18;;
6757;SDS011;3416;53.074;8.822;2023-01-24T04:29:40;13.07;;;10.73;;
6757;SDS011;3416;53.074;8.822;2023-01-24T04:32:07;11.95;;;9.38;;
6757;SDS011;3416;53.074;8.822;2023-01-24T04:34:34;12.60;;;8.77;;
6757;SDS011;3416;53.074;8.822;2023-01-24T04:37:03;11.07;;;9.40;;
6757;SDS011;3416;53.074;8.822;2023-01-24T04:39:30;13.82;;;10.43;;
6757;SDS011;3416;53.074;8.822;2023-01-24T04:41:57;23.50;;;10.75;;
6757;SDS011;3416;53.074;8.822;2023-01-24T04:44:24;10.13;;;7.90;;
6757;SDS011;3416;53.074;8.822;2023-01-24T04:46:51;9.75;;;8.15;;
6757;SDS011;3416;53.074;8.822;2023-01-24T04:49:18;13.80;;;9.68;;
6757;SDS011;3416;53.074;8.822;2023-01-24T04:51:46;15.43;;;10.38;;
6757;SDS011;3416;53.074;8.822;2023-01-24T04:54:15;16.75;;;12.52;;
6757;SDS011;3416;53.074;8.822;2023-01-24T04:56:42;11.43;;;8.77;;
6757;SDS011;3416;53.074;8.822;2023-01-24T04:59:10;10.80;;;8.13;;
6757;SDS011;3416;53.074;8.822;2023-01-24T05:01:38;11.00;;;8.98;;
6757;SDS011;3416;53.074;8.822;2023-01-24T05:04:05;12.60;;;10.02;;
6757;SDS011;3416;53.074;8.822;2023-01-24T05:06:33;14.05;;;10.60;;
6757;SDS011;3416;53.074;8.822;2023-01-24T05:11:38;11.05;;;9.18;;
6757;SDS011;3416;53.074;8.822;2023-01-24T05:14:07;11.65;;;9.52;;
6757;SDS011;3416;53.074;8.822;2023-01-24T05:16:34;14.15;;;10.43;;
6757;SDS011;3416;53.074;8.822;2023-01-24T05:19:02;13.02;;;9.77;;
6757;SDS011;3416;53.074;8.822;2023-01-24T05:21:29;13.68;;;10.90;;
6757;SDS011;3416;53.074;8.822;2023-01-24T05:23:56;13.32;;;10.85;;
6757;SDS011;3416;53.074;8.822;2023-01-24T05:26:23;18.23;;;10.82;;
6757;SDS011;3416;53.074;8.822;2023-01-24T05:28:53;13.73;;;10.65;;
6757;SDS011;3416;53.074;8.822;2023-01-24T05:31:21;14.48;;;11.02;;
6757;SDS011;3416;53.074;8.822;2023-01-24T05:33:48;15.57;;;11.10;;
6757;SDS011;3416;53.074;8.822;2023-01-24T05:36:15;13.85;;;10.55;;
6757;SDS011;3416;53.074;8.822;2023-01-24T05:38:50;14.60;;;11.13;;
6757;SDS011;3416;53.074;8.822;2023-01-24T05:41:18;13.20;;;10.57;;
6757;SDS011;3416;53.074;8.822;2023-01-24T05:43:45;12.90;;;9.48;;
6757;SDS011;3416;53.074;8.822;2023-01-24T05:46:15;12.75;;;9.45;;
6757;SDS011;3416;53.074;8.822;2023-01-24T05:48:44;13.93;;;11.00;;
6757;SDS011;3416;53.074;8.822;2023-01-24T05:51:12;14.90;;;12.25;;
6757;SDS011;3416;53.074;8.822;2023-01-24T05:53:42;13.40;;;10.10;;
6757;SDS011;3416;53.074;8.822;2023-01-24T05:56:10;13.73;;;10.90;;
6757;SDS011;3416;53.074;8.822;2023-01-24T05:58:39;15.38;;;10.43;;
6757;SDS011;3416;53.074;8.822;2023-01-24T06:01:07;14.80;;;11.52;;
6757;SDS011;3416;53.074;8.822;2023-01-24T06:03:37;15.15;;;11.65;;
6757;SDS011;3416;53.074;8.822;2023-01-24T06:06:06;17.17;;;11.40;;
6757;SDS011;3416;53.074;8.822;2023-01-24T06:08:34;17.27;;;11.85;;
6757;SDS011;3416;53.074;8.822;2023-01-24T06:11:02;15.25;;;11.25;;
6757;SDS011;3416;53.074;8.822;2023-01-24T06:13:30;18.30;;;11.65;;
6757;SDS011;3416;53.074;8.822;2023-01-24T06:16:00;14.00;;;10.48;;
6757;SDS011;3416;53.074;8.822;2023-01-24T06:18:28;12.18;;;10.27;;
6757;SDS011;3416;53.074;8.822;2023-01-24T06:20:57;17.52;;;10.95;;
6757;SDS011;3416;53.074;8.822;2023-01-24T06:23:30;16.58;;;10.57;;
6757;SDS011;3416;53.074;8.822;2023-01-24T06:25:57;15.98;;;11.15;;
6757;SDS011;3416;53.074;8.822;2023-01-24T06:28:25;16.02;;;11.50;;
6757;SDS011;3416;53.074;8.822;2023-01-24T06:30:56;15.60;;;12.40;;
6757;SDS011;3416;53.074;8.822;2023-01-24T06:33:31;12.52;;;9.82;;
6757;SDS011;3416;53.074;8.822;2023-01-24T06:36:12;13.23;;;10.13;;
6757;SDS011;3416;53.074;8.822;2023-01-24T06:38:56;20.15;;;11.75;;
6757;SDS011;3416;53.074;8.822;2023-01-24T06:41:23;15.70;;;11.85;;
6757;SDS011;3416;53.074;8.822;2023-01-24T06:43:51;16.55;;;11.40;;
6757;SDS011;3416;53.074;8.822;2023-01-24T06:46:18;18.27;;;11.05;;
6757;SDS011;3416;53.074;8.822;2023-01-24T06:48:45;12.93;;;9.30;;
6757;SDS011;3416;53.074;8.822;2023-01-24T06:51:14;15.30;;;10.70;;
6757;SDS011;3416;53.074;8.822;2023-01-24T06:53:41;15.23;;;11.15;;
6757;SDS011;3416;53.074;8.822;2023-01-24T06:56:19;13.95;;;10.25;;
6757;SDS011;3416;53.074;8.822;2023-01-24T06:58:46;17.30;;;12.10;;
6757;SDS011;3416;53.074;8.822;2023-01-24T07:01:20;15.93;;;11.25;;
6757;SDS011;3416;53.074;8.822;2023-01-24T07:03:54;15.43;;;11.43;;
6757;SDS011;3416;53.074;8.822;2023-01-24T07:06:23;15.30;;;11.30;;
6757;SDS011;3416;53.074;8.822;2023-01-24T07:08:52;16.75;;;11.90;;
6757;SDS011;3416;53.074;8.822;2023-01-24T07:11:19;15.73;;;11.27;;
6757;SDS011;3416;53.074;8.822;2023-01-24T07:13:50;17.98;;;12.77;;
6757;SDS011;3416;53.074;8.822;2023-01-24T07:16:35;21.52;;;13.45;;
6757;SDS011;3416;53.074;8.822;2023-01-24T07:19:02;16.60;;;12.20;;
6757;SDS011;3416;53.074;8.822;2023-01-24T07:21:32;17.42;;;12.73;;
6757;SDS011;3416;53.074;8.822;2023-01-24T07:24:07;14.40;;;11.68;;
6757;SDS011;3416;53.074;8.822;2023-01-24T07:26:39;16.88;;;11.80;;
6757;SDS011;3416;53.074;8.822;2023-01-24T07:29:07;17.40;;;14.23;;
6757;SDS011;3416;53.074;8.822;2023-01-24T07:31:34;18.00;;;13.68;;
6757;SDS011;3416;53.074;8.822;2023-01-24T07:34:01;16.13;;;12.00;;
6757;SDS011;3416;53.074;8.822;2023-01-24T07:36:31;23.33;;;15.30;;
6757;SDS011;3416;53.074;8.822;2023-01-24T07:38:58;17.42;;;13.27;;
6757;SDS011;3416;53.074;8.822;2023-01-24T07:41:31;15.98;;;12.25;;
6757;SDS011;3416;53.074;8.822;2023-01-24T07:43:58;21.33;;;14.10;;
6757;SDS011;3416;53.074;8.822;2023-01-24T07:46:25;16.50;;;12.68;;
6757;SDS011;3416;53.074;8.822;2023-01-24T07:48:52;17.50;;;13.82;;
6757;SDS011;3416;53.074;8.822;2023-01-24T07:51:19;16.38;;;12.75;;
6757;SDS011;3416;53.074;8.822;2023-01-24T07:53:47;13.52;;;11.48;;
6757;SDS011;3416;53.074;8.822;2023-01-24T07:56:14;15.90;;;13.05;;
6757;SDS011;3416;53.074;8.822;2023-01-24T07:58:43;18.40;;;13.07;;
6757;SDS011;3416;53.074;8.822;2023-01-24T08:01:14;19.17;;;14.43;;
6757;SDS011;3416;53.074;8.822;2023-01-24T08:03:42;17.30;;;14.25;;
6757;SDS011;3416;53.074;8.822;2023-01-24T08:06:09;17.38;;;13.10;;
6757;SDS011;3416;53.074;8.822;2023-01-24T08:08:37;17.63;;;13.93;;
6757;SDS011;3416;53.074;8.822;2023-01-24T08:11:05;16.73;;;12.90;;
6757;SDS011;3416;53.074;8.822;2023-01-24T08:13:36;17.23;;;12.52;;
6757;SDS011;3416;53.074;8.822;2023-01-24T08:16:03;14.13;;;12.40;;
6757;SDS011;3416;53.074;8.822;2023-01-24T08:18:31;17.17;;;12.85;;
6757;SDS011;3416;53.074;8.822;2023-01-24T08:20:58;17.17;;;11.15;;
6757;SDS011;3416;53.074;8.822;2023-01-24T08:23:25;18.05;;;13.25;;
6757;SDS011;3416;53.074;8.822;2023-01-24T08:25:52;17.00;;;12.20;;
6757;SDS011;3416;53.074;8.822;2023-01-24T08:28:20;19.08;;;12.73;;
6757;SDS011;3416;53.074;8.822;2023-01-24T08:30:47;17.08;;;13.77;;
6757;SDS011;3416;53.074;8.822;2023-01-24T08:33:14;15.50;;;11.40;;
6757;SDS011;3416;53.074;8.822;2023-01-24T08:35:44;16.08;;;13.40;;
6757;SDS011;3416;53.074;8.822;2023-01-24T08:38:11;17.08;;;13.20;;
6757;SDS011;3416;53.074;8.822;2023-01-24T08:40:39;14.68;;;11.68;;
6757;SDS011;3416;53.074;8.822;2023-01-24T08:43:07;17.67;;;13.25;;
6757;SDS011;3416;53.074;8.822;2023-01-24T08:45:36;16.55;;;12.02;;
6757;SDS011;3416;53.074;8.822;2023-01-24T08:48:05;16.92;;;13.65;;
6757;SDS011;3416;53.074;8.822;2023-01-24T08:50:32;18.45;;;13.15;;
6757;SDS011;3416;53.074;8.822;2023-01-24T08:52:59;15.02;;;12.20;;
6757;SDS011;3416;53.074;8.822;2023-01-24T08:55:26;17.52;;;12.63;;
6757;SDS011;3416;53.074;8.822;2023-01-24T08:58:00;16.30;;;11.68;;
6757;SDS011;3416;53.074;8.822;2023-01-24T09:00:28;18.77;;;13.40;;
6757;SDS011;3416;53.074;8.822;2023-01-24T09:02:56;16.65;;;12.25;;
6757;SDS011;3416;53.074;8.822;2023-01-24T09:05:25;18.15;;;13.35;;
6757;SDS011;3416;53.074;8.822;2023-01-24T09:10:44;15.60;;;12.70;;
6757;SDS011;3416;53.074;8.822;2023-01-24T09:13:11;19.33;;;14.27;;
6757;SDS011;3416;53.074;8.822;2023-01-24T09:15:38;15.52;;;12.30;;
6757;SDS011;3416;53.074;8.822;2023-01-24T09:18:06;16.85;;;14.25;;
6757;SDS011;3416;53.074;8.822;2023-01-24T09:20:34;15.07;;;12.50;;
6757;SDS011;3416;53.074;8.822;2023-01-24T09:23:06;25.02;;;14.73;;
6757;SDS011;3416;53.074;8.822;2023-01-24T09:25:34;17.48;;;13.45;;
6757;SDS011;3416;53.074;8.822;2023-01-24T09:28:01;20.08;;;14.68;;
6757;SDS011;3416;53.074;8.822;2023-01-24T09:30:28;18.27;;;14.45;;
6757;SDS011;3416;53.074;8.822;2023-01-24T09:32:55;30.52;;;18.85;;
6757;SDS011;3416;53.074;8.822;2023-01-24T09:35:23;23.73;;;15.55;;
6757;SDS011;3416;53.074;8.822;2023-01-24T09:37:51;20.05;;;13.90;;
6757;SDS011;3416;53.074;8.822;2023-01-24T09:40:19;19.25;;;14.15;;
6757;SDS011;3416;53.074;8.822;2023-01-24T09:42:52;20.02;;;13.45;;
6757;SDS011;3416;53.074;8.822;2023-01-24T09:45:27;21.23;;;13.23;;
6757;SDS011;3416;53.074;8.822;2023-01-24T09:47:57;21.60;;;13.95;;
6757;SDS011;3416;53.074;8.822;2023-01-24T09:50:28;16.40;;;13.02;;
6757;SDS011;3416;53.074;8.822;2023-01-24T09:53:01;19.65;;;13.18;;
6757;SDS011;3416;53.074;8.822;2023-01-24T09:55:29;18.23;;;13.70;;
6757;SDS011;3416;53.074;8.822;2023-01-24T09:57:58;18.60;;;12.95;;
6757;SDS011;3416;53.074;8.822;2023-01-24T10:00:31;18.52;;;13.82;;
6757;SDS011;3416;53.074;8.822;2023-01-24T10:03:02;19.20;;;13.77;;
6757;SDS011;3416;53.074;8.822;2023-01-24T10:05:38;18.42;;;13.68;;
6757;SDS011;3416;53.074;8.822;2023-01-24T10:08:11;17.80;;;14.20;;
6757;SDS011;3416;53.074;8.822;2023-01-24T10:10:48;17.33;;;12.98;;
6757;SDS011;3416;53.074;8.822;2023-01-24T10:13:25;16.90;;;14.35;;
6757;SDS011;3416;53.074;8.822;2023-01-24T10:16:44;18.83;;;14.77;;
6757;SDS011;3416;53.074;8.822;2023-01-24T10:19:38;19.27;;;14.25;;
6757;SDS011;3416;53.074;8.822;2023-01-24T10:22:24;18.20;;;13.10;;
6757;SDS011;3416;53.074;8.822;2023-01-24T10:25:09;18.10;;;14.00;;
6757;SDS011;3416;53.074;8.822;2023-01-24T10:27:40;20.67;;;13.25;;
6757;SDS011;3416;53.074;8.822;2023-01-24T10:30:12;18.00;;;13.57;;
6757;SDS011;3416;53.074;8.822;2023-01-24T10:32:43;20.65;;;14.90;;
6757;SDS011;3416;53.074;8.822;2023-01-24T10:35:13;18.13;;;14.45;;
6757;SDS011;3416;53.074;8.822;2023-01-24T10:37:45;18.60;;;13.68;;
6757;SDS011;3416;53.074;8.822;2023-01-24T10:40:21;20.38;;;14.35;;
6757;SDS011;3416;53.074;8.822;2023-01-24T10:42:49;19.02;;;14.13;;
6757;SDS011;3416;53.074;8.822;2023-01-24T10:45:21;18.77;;;13.63;;
6757;SDS011;3416;53.074;8.822;2023-01-24T10:48:09;18.50;;;15.40;;
6757;SDS011;3416;53.074;8.822;2023-01-24T10:50:44;18.30;;;13.15;;
6757;SDS011;3416;53.074;8.822;2023-01-24T10:53:13;20.20;;;14.50;;
6757;SDS011;3416;53.074;8.822;2023-01-24T10:55:41;21.10;;;16.55;;
6757;SDS011;3416;53.074;8.822;2023-01-24T11:00:55;22.67;;;15.82;;
6757;SDS011;3416;53.074;8.822;2023-01-24T11:03:25;19.73;;;14.27;;
6757;SDS011;3416;53.074;8.822;2023-01-24T11:05:54;20.38;;;15.35;;
6757;SDS011;3416;53.074;8.822;2023-01-24T11:08:24;17.95;;;13.90;;
6757;SDS011;3416;53.074;8.822;2023-01-24T11:10:53;22.52;;;14.15;;
6757;SDS011;3416;53.074;8.822;2023-01-24T11:13:25;20.50;;;14.48;;
6757;SDS011;3416;53.074;8.822;2023-01-24T11:15:58;22.20;;;13.93;;
6757;SDS011;3416;53.074;8.822;2023-01-24T11:18:28;19.02;;;15.13;;
6757;SDS011;3416;53.074;8.822;2023-01-24T11:21:06;18.10;;;12.82;;
6757;SDS011;3416;53.074;8.822;2023-01-24T11:23:36;18.83;;;13.23;;
6757;SDS011;3416;53.074;8.822;2023-01-24T11:26:06;19.17;;;14.07;;
6757;SDS011;3416;53.074;8.822;2023-01-24T11:28:54;17.83;;;12.75;;
6757;SDS011;3416;53.074;8.822;2023-01-24T11:31:29;14.65;;;11.43;;
6757;SDS011;3416;53.074;8.822;2023-01-24T11:37:01;17.67;;;11.27;;
6757;SDS011;3416;53.074;8.822;2023-01-24T11:39:37;15.45;;;12.45;;
6757;SDS011;3416;53.074;8.822;2023-01-24T11:42:14;19.50;;;13.60;;
6757;SDS011;3416;53.074;8.822;2023-01-24T11:44:54;20.70;;;13.70;;
6757;SDS011;3416;53.074;8.822;2023-01-24T11:47:32;18.75;;;13.88;;
6757;SDS011;3416;53.074;8.822;2023-01-24T11:50:11;20.40;;;14.70;;
6757;SDS011;3416;53.074;8.822;2023-01-24T11:52:53;23.17;;;13.63;;
6757;SDS011;3416;53.074;8.822;2023-01-24T11:55:36;23.13;;;12.93;;
6757;SDS011;3416;53.074;8.822;2023-01-24T11:58:15;19.38;;;13.68;;
6757;SDS011;3416;53.074;8.822;2023-01-24T12:00:58;19.35;;;13.80;;
6757;SDS011;3416;53.074;8.822;2023-01-24T12:03:43;18.67;;;13.50;;
6757;SDS011;3416;53.074;8.822;2023-01-24T12:06:47;19.40;;;13.68;;
6757;SDS011;3416;53.074;8.822;2023-01-24T12:09:29;20.65;;;13.90;;
6757;SDS011;3416;53.074;8.822;2023-01-24T12:12:05;20.92;;;14.65;;
6757;SDS011;3416;53.074;8.822;2023-01-24T12:17:53;19.83;;;15.18;;
6757;SDS011;3416;53.074;8.822;2023-01-24T12:20:57;17.55;;;13.52;;
6757;SDS011;3416;53.074;8.822;2023-01-24T12:23:28;17.95;;;12.75;;
6757;SDS011;3416;53.074;8.822;2023-01-24T12:26:03;20.55;;;15.68;;
6757;SDS011;3416;53.074;8.822;2023-01-24T12:28:39;15.32;;;12.10;;
6757;SDS011;3416;53.074;8.822;2023-01-24T12:31:11;16.35;;;13.07;;
6757;SDS011;3416;53.074;8.822;2023-01-24T12:33:46;17.50;;;13.50;;
6757;SDS011;3416;53.074;8.822;2023-01-24T12:36:23;17.63;;;12.57;;
6757;SDS011;3416;53.074;8.822;2023-01-24T12:38:59;19.95;;;13.30;;
6757;SDS011;3416;53.074;8.822;2023-01-24T12:41:31;20.95;;;13.65;;
6757;SDS011;3416;53.074;8.822;2023-01-24T12:44:02;15.57;;;13.75;;
6757;SDS011;3416;53.074;8.822;2023-01-24T12:46:38;17.98;;;13.95;;
6757;SDS011;3416;53.074;8.822;2023-01-24T12:49:10;17.15;;;12.30;;
6757;SDS011;3416;53.074;8.822;2023-01-24T12:51:46;26.23;;;14.57;;
6757;SDS011;3416;53.074;8.822;2023-01-24T12:54:21;20.33;;;13.95;;
6757;SDS011;3416;53.074;8.822;2023-01-24T12:56:56;15.23;;;13.25;;
6757;SDS011;3416;53.074;8.822;2023-01-24T12:59:28;17.95;;;13.52;;
6757;SDS011;3416;53.074;8.822;2023-01-24T13:04:56;23.02;;;14.32;;
6757;SDS011;3416;53.074;8.822;2023-01-24T13:07:38;16.77;;;11.75;;
6757;SDS011;3416;53.074;8.822;2023-01-24T13:10:17;16.05;;;13.40;;
6757;SDS011;3416;53.074;8.822;2023-01-24T13:12:53;19.85;;;13.27;;
6757;SDS011;3416;53.074;8.822;2023-01-24T13:15:26;20.80;;;14.57;;
6757;SDS011;3416;53.074;8.822;2023-01-24T13:18:07;17.13;;;13.18;;
6757;SDS011;3416;53.074;8.822;2023-01-24T13:20:55;17.05;;;12.15;;
6757;SDS011;3416;53.074;8.822;2023-01-24T13:23:34;17.33;;;13.23;;
6757;SDS011;3416;53.074;8.822;2023-01-24T13:26:32;17.77;;;12.55;;
6757;SDS011;3416;53.074;8.822;2023-01-24T13:29:21;18.50;;;13.95;;
6757;SDS011;3416;53.074;8.822;2023-01-24T13:32:06;17.85;;;13.73;;
6757;SDS011;3416;53.074;8.822;2023-01-24T13:34:40;18.17;;;13.15;;
6757;SDS011;3416;53.074;8.822;2023-01-24T13:37:14;19.40;;;12.85;;
6757;SDS011;3416;53.074;8.822;2023-01-24T13:39:44;16.58;;;12.48;;
6757;SDS011;3416;53.074;8.822;2023-01-24T13:42:20;17.20;;;13.85;;
6757;SDS011;3416;53.074;8.822;2023-01-24T13:44:48;20.25;;;13.30;;
6757;SDS011;3416;53.074;8.822;2023-01-24T13:47:25;19.88;;;14.27;;
6757;SDS011;3416;53.074;8.822;2023-01-24T13:50:11;25.13;;;15.32;;
6757;SDS011;3416;53.074;8.822;2023-01-24T13:52:50;19.45;;;14.80;;
6757;SDS011;3416;53.074;8.822;2023-01-24T13:58:28;26.83;;;14.73;;
6757;SDS011;3416;53.074;8.822;2023-01-24T14:00:57;23.05;;;14.90;;
6757;SDS011;3416;53.074;8.822;2023-01-24T14:03:28;19.75;;;13.60;;
6757;SDS011;3416;53.074;8.822;2023-01-24T14:06:08;20.23;;;13.88;;
6757;SDS011;3416;53.074;8.822;2023-01-24T14:08:47;17.83;;;13.88;;
6757;SDS011;3416;53.074;8.822;2023-01-24T14:11:39;19.13;;;13.07;;
6757;SDS011;3416;53.074;8.822;2023-01-24T14:14:30;16.45;;;12.60;;
6757;SDS011;3416;53.074;8.822;2023-01-24T14:17:00;21.80;;;14.93;;
6757;SDS011;3416;53.074;8.822;2023-01-24T14:19:52;18.15;;;13.93;;
6757;SDS011;3416;53.074;8.822;2023-01-24T14:22:36;21.23;;;15.40;;
6757;SDS011;3416;53.074;8.822;2023-01-24T14:30:58;21.73;;;13.95;;
6757;SDS011;3416;53.074;8.822;2023-01-24T14:33:41;19.73;;;14.45;;
6757;SDS011;3416;53.074;8.822;2023-01-24T14:36:16;15.30;;;12.15;;
6757;SDS011;3416;53.074;8.822;2023-01-24T14:41:37;17.48;;;12.90;;
6757;SDS011;3416;53.074;8.822;2023-01-24T14:44:13;20.40;;;12.82;;
6757;SDS011;3416;53.074;8.822;2023-01-24T14:46:53;20.85;;;13.07;;
6757;SDS011;3416;53.074;8.822;2023-01-24T14:49:30;18.73;;;14.45;;
6757;SDS011;3416;53.074;8.822;2023-01-24T14:51:59;16.52;;;13.05;;
6757;SDS011;3416;53.074;8.822;2023-01-24T14:54:28;20.65;;;13.35;;
6757;SDS011;3416;53.074;8.822;2023-01-24T14:56:55;25.27;;;15.75;;
6757;SDS011;3416;53.074;8.822;2023-01-24T14:59:22;17.13;;;13.60;;
6757;SDS011;3416;53.074;8.822;2023-01-24T15:01:50;18.35;;;13.85;;
6757;SDS011;3416;53.074;8.822;2023-01-24T15:04:19;21.55;;;13.98;;
6757;SDS011;3416;53.074;8.822;2023-01-24T15:07:03;18.17;;;13.30;;
6757;SDS011;3416;53.074;8.822;2023-01-24T15:09:32;19.30;;;12.68;;
6757;SDS011;3416;53.074;8.822;2023-01-24T15:14:52;22.45;;;14.15;;
6757;SDS011;3416;53.074;8.822;2023-01-24T15:17:27;21.48;;;13.70;;
6757;SDS011;3416;53.074;8.822;2023-01-24T15:19:57;16.75;;;12.82;;
6757;SDS011;3416;53.074;8.822;2023-01-24T15:22:27;16.38;;;12.20;;
6757;SDS011;3416;53.074;8.822;2023-01-24T15:25:00;23.92;;;16.73;;
6757;SDS011;3416;53.074;8.822;2023-01-24T15:27:37;20.27;;;14.93;;
6757;SDS011;3416;53.074;8.822;2023-01-24T15:30:15;21.05;;;15.20;;
6757;SDS011;3416;53.074;8.822;2023-01-24T15:32:44;24.83;;;15.80;;
6757;SDS011;3416;53.074;8.822;2023-01-24T15:35:24;17.70;;;13.63;;
6757;SDS011;3416;53.074;8.822;2023-01-24T15:38:06;20.23;;;15.05;;
6757;SDS011;3416;53.074;8.822;2023-01-24T15:40:44;18.20;;;14.10;;
6757;SDS011;3416;53.074;8.822;2023-01-24T15:43:19;19.45;;;14.02;;
6757;SDS011;3416;53.074;8.822;2023-01-24T15:46:05;18.52;;;14.15;;
6757;SDS011;3416;53.074;8.822;2023-01-24T15:48:58;17.65;;;13.00;;
6757;SDS011;3416;53.074;8.822;2023-01-24T15:51:30;16.95;;;11.77;;
6757;SDS011;3416;53.074;8.822;2023-01-24T15:54:02;18.75;;;13.07;;
6757;SDS011;3416;53.074;8.822;2023-01-24T15:56:36;20.67;;;13.02;;
6757;SDS011;3416;53.074;8.822;2023-01-24T15:59:06;14.45;;;12.43;;
6757;SDS011;3416;53.074;8.822;2023-01-24T16:01:41;17.63;;;12.10;;
6757;SDS011;3416;53.074;8.822;2023-01-24T16:04:09;16.20;;;11.80;;
6757;SDS011;3416;53.074;8.822;2023-01-24T16:06:39;18.70;;;13.35;;